Time;durP1;ratioP1;P1;durP2;ratioP2;P2;SDS_P1;SDS_P2;PMS_P1;PMS_P2;Temp;Humidity;BMP_temperature;BMP_pressure;BME280_temperature;BME280_humidity;BME280_pressure;Samples;Min_cycle;Max_cycle;Signal;HPM_P1;HPM_P2
2022/01/13 00:00:52;;;;;;;220.73;30.13;;;5.20;99.90;;;;;;5082308;28;20056;-76
2022/01/13 00:03:18;;;;;;;229.18;33.22;;;5.20;99.90;;;;;;5111181;27;20061;-75
2022/01/13 00:05:44;;;;;;;193.00;30.95;;;5.20;99.90;;;;;;5083026;28;20031;-75
2022/01/13 00:08:09;;;;;;;249.63;33.92;;;5.20;99.90;;;;;;5085522;28;20040;-75
2022/01/13 00:10:35;;;;;;;267.88;33.13;;;5.20;99.90;;;;;;5085489;28;20399;-75
2022/01/13 00:13:08;;;;;;;214.45;31.52;;;5.20;99.90;;;;;;5085600;28;20600;-75
2022/01/13 00:15:46;;;;;;;163.40;27.35;;;5.20;99.90;;;;;;5084172;28;20080;-75
2022/01/13 00:18:14;;;;;;;139.98;26.77;;;5.20;99.90;;;;;;5081466;28;20127;-75
2022/01/13 00:26:02;;;;;;;122.93;25.98;;;5.00;99.90;;;;;;5086634;28;20040;-75
2022/01/13 00:28:27;;;;;;;124.20;27.25;;;5.10;99.90;;;;;;5112079;27;20048;-75
2022/01/13 00:30:56;;;;;;;107.70;25.23;;;5.00;99.90;;;;;;5086321;28;20052;-75
2022/01/13 00:33:24;;;;;;;94.82;24.65;;;4.90;99.90;;;;;;5083470;28;20055;-75
2022/01/13 00:35:57;;;;;;;99.20;25.30;;;5.00;99.90;;;;;;5081620;28;20051;-75
2022/01/13 00:38:23;;;;;;;92.95;24.05;;;5.00;99.90;;;;;;5110671;27;20044;-75
2022/01/13 00:40:49;;;;;;;107.90;26.38;;;5.00;99.90;;;;;;5110578;27;20101;-75
2022/01/13 00:43:15;;;;;;;122.15;25.77;;;5.00;99.90;;;;;;5081481;28;20639;-75
2022/01/13 00:45:41;;;;;;;127.03;25.83;;;5.00;99.90;;;;;;5085324;28;20138;-75
2022/01/13 00:48:07;;;;;;;99.18;24.38;;;5.00;99.90;;;;;;5086664;28;20028;-75
2022/01/13 00:50:32;;;;;;;112.78;25.63;;;5.00;99.90;;;;;;5083974;28;20040;-75
2022/01/13 00:52:58;;;;;;;108.20;25.17;;;4.90;99.90;;;;;;5085024;28;20036;-75
2022/01/13 00:55:32;;;;;;;98.90;26.08;;;5.00;99.90;;;;;;5086924;28;20702;-75
2022/01/13 00:57:58;;;;;;;137.70;27.33;;;4.90;99.90;;;;;;5088209;28;20055;-75
2022/01/13 01:00:23;;;;;;;116.25;25.48;;;4.90;99.90;;;;;;5099341;28;20402;-75
2022/01/13 01:02:49;;;;;;;104.43;24.90;;;5.00;99.90;;;;;;5084463;28;20044;-75
2022/01/13 01:05:15;;;;;;;127.95;27.73;;;4.90;99.90;;;;;;5083001;28;20027;-75
2022/01/13 01:07:40;;;;;;;86.85;25.95;;;5.00;99.90;;;;;;5085530;28;20051;-75
2022/01/13 01:10:07;;;;;;;93.18;26.20;;;4.90;99.90;;;;;;5086801;28;20068;-75
2022/01/13 01:12:37;;;;;;;86.30;24.80;;;5.00;99.90;;;;;;5081598;28;20116;-75
2022/01/13 01:15:03;;;;;;;86.95;24.60;;;4.90;99.90;;;;;;5085071;28;20502;-75
2022/01/13 01:17:29;;;;;;;81.85;25.05;;;5.00;99.90;;;;;;5081742;28;20036;-75
2022/01/13 01:19:55;;;;;;;117.47;26.63;;;4.90;99.90;;;;;;5081238;28;20051;-75
2022/01/13 01:27:20;;;;;;;105.30;26.73;;;4.90;99.90;;;;;;5113215;27;20047;-75
2022/01/13 01:32:33;;;;;;;91.57;24.75;;;5.00;99.90;;;;;;5090918;28;20135;-75
2022/01/13 01:35:02;;;;;;;107.95;24.77;;;5.00;99.90;;;;;;5117263;27;20057;-75
2022/01/13 01:37:30;;;;;;;93.25;23.60;;;5.00;99.90;;;;;;5085852;28;20052;-75
2022/01/13 01:39:57;;;;;;;91.30;25.00;;;5.00;99.90;;;;;;5087694;28;20046;-75
2022/01/13 01:42:24;;;;;;;102.05;25.45;;;5.00;99.90;;;;;;5087830;28;20055;-75
2022/01/13 01:44:53;;;;;;;80.18;25.05;;;5.00;99.90;;;;;;5086824;28;20032;-75
2022/01/13 01:47:21;;;;;;;92.15;26.77;;;5.00;99.90;;;;;;5117389;27;20043;-75
2022/01/13 01:49:49;;;;;;;94.07;26.42;;;5.00;99.90;;;;;;5086724;28;20040;-75
2022/01/13 01:52:18;;;;;;;110.43;24.25;;;5.00;99.90;;;;;;5090466;28;20029;-75
2022/01/13 01:54:45;;;;;;;125.15;26.67;;;5.00;99.90;;;;;;5089262;28;20032;-75
2022/01/13 01:57:11;;;;;;;90.82;22.20;;;4.90;99.90;;;;;;5090228;28;20040;-75
2022/01/13 01:59:39;;;;;;;106.47;22.33;;;4.90;99.90;;;;;;5086644;28;20375;-75
2022/01/13 02:02:07;;;;;;;91.63;20.90;;;5.00;99.90;;;;;;5087582;28;20127;-75
2022/01/13 02:04:33;;;;;;;83.10;21.50;;;5.00;99.90;;;;;;5087946;28;20048;-75
2022/01/13 02:07:07;;;;;;;62.05;18.73;;;4.90;99.90;;;;;;5087794;28;20097;-75
2022/01/13 02:09:37;;;;;;;96.63;20.35;;;4.90;99.90;;;;;;5090482;28;20041;-75
2022/01/13 02:12:08;;;;;;;111.65;19.73;;;4.90;99.90;;;;;;5084326;28;20766;-75
2022/01/13 02:14:46;;;;;;;93.43;19.65;;;4.90;99.90;;;;;;5087249;28;20059;-75
2022/01/13 02:17:15;;;;;;;123.13;21.55;;;4.90;99.90;;;;;;5088587;28;20062;-75
2022/01/13 02:19:44;;;;;;;101.00;21.17;;;4.90;99.90;;;;;;5085353;28;20040;-75
2022/01/13 02:22:10;;;;;;;101.90;23.65;;;4.90;99.90;;;;;;5084685;28;20044;-75
2022/01/13 02:24:37;;;;;;;101.90;21.60;;;4.90;99.90;;;;;;5087828;28;20140;-75
2022/01/13 02:27:05;;;;;;;123.05;24.35;;;4.90;99.90;;;;;;5090396;28;20028;-75
2022/01/13 02:29:30;;;;;;;136.85;23.15;;;5.20;99.90;;;;;;5083780;28;20051;-75
2022/01/13 02:31:57;;;;;;;116.75;22.45;;;4.90;99.90;;;;;;5089375;28;20754;-75
2022/01/13 02:34:22;;;;;;;110.95;23.83;;;4.80;99.90;;;;;;5117553;27;20051;-75
2022/01/13 02:36:56;;;;;;;137.13;23.45;;;4.90;99.90;;;;;;5084740;28;20483;-75
2022/01/13 02:39:23;;;;;;;146.73;24.63;;;4.90;99.90;;;;;;5085358;28;20036;-75
2022/01/13 02:41:48;;;;;;;121.47;23.17;;;4.80;99.90;;;;;;5086086;28;20052;-75
2022/01/13 02:44:20;;;;;;;132.63;25.05;;;4.90;99.90;;;;;;5083848;28;20798;-75
2022/01/13 02:49:17;;;;;;;109.50;21.90;;;4.80;99.90;;;;;;5085718;28;20052;-75
2022/01/13 02:51:45;;;;;;;162.75;25.27;;;4.80;99.90;;;;;;5085795;28;20056;-75
2022/01/13 02:54:11;;;;;;;128.70;23.08;;;4.80;99.90;;;;;;5089996;28;20486;-75
2022/01/13 02:56:38;;;;;;;131.88;21.95;;;4.80;99.90;;;;;;5083768;28;20029;-75
2022/01/13 02:59:05;;;;;;;98.05;21.60;;;4.80;99.90;;;;;;5086778;28;20044;-75
2022/01/13 03:01:32;;;;;;;98.80;20.55;;;4.80;99.90;;;;;;5088463;28;20055;-75
2022/01/13 03:04:01;;;;;;;155.60;23.50;;;4.80;99.90;;;;;;5117394;27;20032;-75
2022/01/13 03:06:35;;;;;;;115.20;23.33;;;4.80;99.90;;;;;;5116556;27;20047;-75
2022/01/13 03:09:03;;;;;;;99.47;21.92;;;4.80;99.90;;;;;;5115452;27;20085;-75
2022/01/13 03:11:37;;;;;;;100.10;21.58;;;4.80;99.90;;;;;;5086471;28;20494;-75
2022/01/13 03:14:10;;;;;;;197.23;25.27;;;4.80;99.90;;;;;;5114223;27;20051;-75
2022/01/13 03:16:40;;;;;;;147.02;24.48;;;4.80;99.90;;;;;;5087540;28;20101;-75
2022/01/13 03:19:06;;;;;;;148.30;24.88;;;4.90;99.90;;;;;;5085811;28;20387;-75
2022/01/13 03:21:31;;;;;;;141.90;24.70;;;4.90;99.90;;;;;;5083370;28;20040;-75
2022/01/13 03:23:57;;;;;;;112.13;23.50;;;4.90;99.90;;;;;;5085526;28;20551;-75
2022/01/13 03:26:24;;;;;;;164.77;26.95;;;4.90;99.90;;;;;;5086704;28;20506;-75
2022/01/13 03:28:51;;;;;;;180.05;27.70;;;4.90;99.90;;;;;;5080842;28;20089;-75
2022/01/13 03:31:19;;;;;;;148.98;27.65;;;4.90;99.90;;;;;;5114134;27;20044;-75
2022/01/13 03:33:45;;;;;;;100.22;24.25;;;4.90;99.90;;;;;;5072008;28;20074;-75
2022/01/13 03:36:11;;;;;;;95.45;24.25;;;4.90;99.90;;;;;;5085217;28;20043;-75
2022/01/13 03:38:38;;;;;;;175.65;26.50;;;4.90;99.90;;;;;;5089730;28;20044;-75
2022/01/13 03:41:04;;;;;;;150.82;26.10;;;4.90;99.90;;;;;;5086964;28;20494;-75
2022/01/13 03:43:30;;;;;;;153.90;26.88;;;4.90;99.90;;;;;;5089497;28;20040;-75
2022/01/13 03:45:56;;;;;;;140.60;24.77;;;4.90;99.90;;;;;;5092852;28;20454;-75
2022/01/13 03:48:22;;;;;;;161.07;25.20;;;4.90;99.90;;;;;;5089517;28;20076;-75
2022/01/13 03:50:47;;;;;;;115.57;22.90;;;4.90;99.90;;;;;;5085956;28;20079;-74
2022/01/13 03:53:28;;;;;;;140.05;23.23;;;4.90;99.90;;;;;;5084818;28;20075;-75
2022/01/13 03:56:32;;;;;;;194.68;26.33;;;4.90;99.90;;;;;;5088248;28;20118;-75
2022/01/13 03:59:28;;;;;;;151.18;23.67;;;4.90;99.90;;;;;;5115331;27;20051;-75
2022/01/13 04:02:03;;;;;;;156.80;22.80;;;4.90;99.90;;;;;;5112268;27;20087;-74
2022/01/13 04:04:30;;;;;;;144.10;24.17;;;4.90;99.90;;;;;;5084212;28;20051;-75
2022/01/13 04:07:12;;;;;;;180.15;24.85;;;4.90;99.90;;;;;;5092741;28;20038;-75
2022/01/13 04:09:40;;;;;;;156.15;22.58;;;4.90;99.90;;;;;;5084384;28;20134;-75
2022/01/13 04:12:10;;;;;;;197.52;24.52;;;4.90;99.90;;;;;;5088930;28;20406;-75
2022/01/13 04:14:58;;;;;;;133.85;21.80;;;4.90;99.90;;;;;;5084426;28;20042;-75
2022/01/13 04:17:25;;;;;;;163.88;23.85;;;4.90;99.90;;;;;;5084423;28;20482;-74
2022/01/13 04:19:51;;;;;;;132.10;22.42;;;4.80;99.90;;;;;;5084881;28;20036;-75
2022/01/13 04:22:18;;;;;;;149.85;23.42;;;4.90;99.90;;;;;;5085032;28;20043;-75
2022/01/13 04:24:49;;;;;;;148.52;22.95;;;4.90;99.90;;;;;;5083366;28;20698;-75
2022/01/13 04:27:24;;;;;;;152.57;23.02;;;4.90;99.90;;;;;;5085425;28;20067;-75
2022/01/13 04:30:11;;;;;;;129.23;22.17;;;4.90;99.90;;;;;;5085769;28;20129;-75
2022/01/13 04:32:36;;;;;;;113.50;22.75;;;4.90;99.90;;;;;;5082647;28;20035;-75
2022/01/13 04:35:02;;;;;;;128.80;22.95;;;4.90;99.90;;;;;;5103370;27;20042;-75
2022/01/13 04:37:28;;;;;;;153.15;24.88;;;4.90;99.90;;;;;;5074723;28;20047;-75
2022/01/13 04:39:53;;;;;;;130.25;24.20;;;4.90;99.90;;;;;;5080165;28;20399;-75
2022/01/13 04:42:19;;;;;;;128.90;24.10;;;4.90;99.90;;;;;;5117407;27;20443;-75
2022/01/13 04:44:44;;;;;;;84.00;22.00;;;4.90;99.90;;;;;;5090819;28;20144;-75
2022/01/13 04:47:10;;;;;;;119.00;24.20;;;4.90;99.90;;;;;;5083419;28;20082;-75
2022/01/13 04:49:36;;;;;;;115.45;23.75;;;4.90;99.90;;;;;;5085892;28;20180;-75
2022/01/13 04:52:01;;;;;;;99.47;24.15;;;4.90;99.90;;;;;;5087704;28;20043;-75
2022/01/13 04:54:27;;;;;;;96.35;23.42;;;4.90;99.90;;;;;;5086632;28;20048;-74
2022/01/13 04:57:38;;;;;;;146.75;26.13;;;4.90;99.90;;;;;;5084016;28;20089;-74
2022/01/13 04:59:38;;;;;;;119.13;23.83;;;4.90;99.90;;;;;;5073193;28;20056;-74
2022/01/13 05:02:04;;;;;;;119.38;25.08;;;5.00;99.90;;;;;;5082404;28;21522;-75
2022/01/13 05:04:30;;;;;;;141.73;24.58;;;4.90;99.90;;;;;;5085485;28;20403;-74
2022/01/13 05:06:55;;;;;;;114.22;24.02;;;4.90;99.90;;;;;;5090138;28;20115;-74
2022/01/13 05:09:21;;;;;;;137.95;24.95;;;4.90;99.90;;;;;;5086982;28;20031;-74
2022/01/13 05:11:46;;;;;;;109.60;24.52;;;4.90;99.90;;;;;;5091077;28;20103;-74
2022/01/13 05:14:12;;;;;;;103.25;24.10;;;4.90;99.90;;;;;;5094773;28;20038;-74
2022/01/13 05:19:29;;;;;;;128.50;24.63;;;4.90;99.90;;;;;;5092623;28;20051;-75
2022/01/13 05:24:23;;;;;;;152.75;27.17;;;4.90;99.90;;;;;;5086872;28;20448;-74
2022/01/13 05:26:49;;;;;;;168.48;26.58;;;4.90;99.90;;;;;;5085194;28;20047;-74
2022/01/13 05:29:19;;;;;;;115.63;24.60;;;4.80;99.90;;;;;;5123792;27;20509;-74
2022/01/13 05:31:45;;;;;;;119.35;25.05;;;4.90;99.90;;;;;;5082495;28;20505;-74
2022/01/13 05:34:10;;;;;;;123.03;25.23;;;4.80;99.90;;;;;;5085995;28;20036;-74
2022/01/13 05:36:36;;;;;;;111.88;24.25;;;4.80;99.90;;;;;;5087243;28;20468;-74
2022/01/13 05:39:03;;;;;;;144.63;24.58;;;4.80;99.90;;;;;;5084886;28;20418;-74
2022/01/13 05:41:30;;;;;;;100.75;22.25;;;4.80;99.90;;;;;;5085708;28;20048;-74
2022/01/13 05:43:56;;;;;;;117.75;23.75;;;4.80;99.90;;;;;;5085474;28;20479;-74
2022/01/13 05:46:22;;;;;;;87.50;22.83;;;4.90;99.90;;;;;;5082855;28;20047;-74
2022/01/13 05:48:47;;;;;;;99.38;22.85;;;4.80;99.90;;;;;;5083002;28;20048;-74
2022/01/13 05:51:13;;;;;;;95.80;23.33;;;4.80;99.90;;;;;;5084140;28;20044;-74
2022/01/13 05:53:39;;;;;;;83.20;21.27;;;4.80;99.90;;;;;;5084111;28;20048;-74
2022/01/13 05:56:04;;;;;;;96.13;23.75;;;4.90;99.90;;;;;;5091813;28;20040;-75
2022/01/13 05:58:30;;;;;;;95.80;22.35;;;4.90;99.90;;;;;;5116692;27;20482;-74
2022/01/13 06:00:56;;;;;;;118.57;24.63;;;4.80;99.90;;;;;;5083716;28;20086;-74
2022/01/13 06:03:21;;;;;;;111.70;22.95;;;4.80;99.90;;;;;;5084284;28;20082;-74
2022/01/13 06:05:47;;;;;;;123.40;24.05;;;4.90;99.90;;;;;;5081084;28;20044;-74
2022/01/13 06:08:12;;;;;;;105.57;22.45;;;4.80;99.90;;;;;;5090968;28;20036;-74
2022/01/13 06:10:43;;;;;;;116.65;23.10;;;4.90;99.90;;;;;;5086590;28;20088;-74
2022/01/13 06:13:24;;;;;;;86.57;21.08;;;4.90;99.90;;;;;;5083744;28;20056;-74
2022/01/13 06:15:49;;;;;;;94.35;20.77;;;4.90;99.90;;;;;;5115157;27;20041;-74
2022/01/13 06:18:16;;;;;;;101.32;21.00;;;4.90;99.90;;;;;;5078501;28;20039;-74
2022/01/13 06:20:42;;;;;;;78.82;19.30;;;4.90;99.90;;;;;;5078875;28;20044;-74
2022/01/13 06:23:10;;;;;;;120.97;21.33;;;4.90;99.90;;;;;;5080735;28;20075;-74
2022/01/13 06:25:36;;;;;;;100.13;20.75;;;4.90;99.90;;;;;;5078593;28;20037;-74
2022/01/13 06:28:02;;;;;;;96.60;20.85;;;5.00;99.90;;;;;;5112317;27;20039;-74
2022/01/13 06:30:29;;;;;;;72.80;19.70;;;4.90;99.90;;;;;;5078731;28;20044;-74
2022/01/13 06:32:55;;;;;;;97.60;20.85;;;4.90;99.90;;;;;;5081071;28;20051;-74
2022/01/13 06:35:21;;;;;;;77.90;19.92;;;4.90;99.90;;;;;;5082466;28;20028;-74
2022/01/13 06:37:46;;;;;;;113.20;21.52;;;4.90;99.90;;;;;;5084820;28;20048;-75
2022/01/13 06:40:14;;;;;;;95.78;21.23;;;4.90;99.90;;;;;;5082794;28;20055;-75
2022/01/13 06:42:40;;;;;;;100.53;20.35;;;4.90;99.90;;;;;;5083198;28;20036;-74
2022/01/13 06:45:07;;;;;;;87.47;20.00;;;5.00;99.90;;;;;;5083387;28;20036;-74
2022/01/13 06:47:33;;;;;;;83.53;20.48;;;4.90;99.90;;;;;;5082029;28;20593;-74
2022/01/13 06:49:58;;;;;;;113.63;21.40;;;4.90;99.90;;;;;;5080783;28;20043;-75
2022/01/13 06:52:24;;;;;;;81.82;21.08;;;5.00;99.90;;;;;;5081049;28;20540;-75
2022/01/13 06:54:52;;;;;;;140.68;24.73;;;5.00;99.90;;;;;;5081680;28;20035;-75
2022/01/13 06:57:19;;;;;;;108.25;23.70;;;4.90;99.90;;;;;;5089716;28;20143;-75
2022/01/13 06:59:44;;;;;;;103.30;23.63;;;4.90;99.90;;;;;;5089230;28;20481;-76
2022/01/13 07:02:10;;;;;;;125.20;25.58;;;5.00;99.90;;;;;;5084925;28;20078;-75
2022/01/13 07:04:36;;;;;;;122.97;24.45;;;5.00;99.90;;;;;;5078915;28;20039;-76
2022/01/13 07:07:02;;;;;;;106.90;22.90;;;5.00;99.90;;;;;;5075511;28;20124;-76
2022/01/13 07:09:28;;;;;;;119.80;23.60;;;5.00;99.90;;;;;;5120597;27;20040;-75
2022/01/13 07:11:53;;;;;;;106.45;22.90;;;5.00;99.90;;;;;;5115163;27;20105;-74
2022/01/13 07:14:19;;;;;;;115.78;22.70;;;5.00;99.90;;;;;;5078568;28;20037;-74
2022/01/13 07:16:46;;;;;;;130.82;24.38;;;5.00;99.90;;;;;;5080623;28;20037;-74
2022/01/13 07:19:13;;;;;;;98.22;22.02;;;5.00;99.90;;;;;;5076297;28;20067;-74
2022/01/13 07:21:44;;;;;;;115.55;23.77;;;5.00;99.90;;;;;;5077394;28;20090;-74
2022/01/13 07:24:10;;;;;;;108.90;22.88;;;5.00;99.90;;;;;;5072776;28;20051;-73
2022/01/13 07:26:36;;;;;;;96.18;20.92;;;5.00;99.90;;;;;;5068547;28;20510;-74
2022/01/13 07:29:04;;;;;;;89.75;21.20;;;5.00;99.90;;;;;;5066031;28;20105;-74
2022/01/13 07:31:29;;;;;;;119.45;22.63;;;5.00;99.90;;;;;;5068032;28;20048;-74
2022/01/13 07:33:56;;;;;;;101.65;21.38;;;5.10;99.90;;;;;;5063465;28;20529;-74
2022/01/13 07:36:21;;;;;;;107.85;22.27;;;5.00;99.90;;;;;;5067186;28;20043;-74
2022/01/13 07:38:47;;;;;;;117.75;24.00;;;5.00;99.90;;;;;;5066035;28;20056;-75
2022/01/13 07:41:13;;;;;;;112.90;23.17;;;5.10;99.90;;;;;;5049153;28;20044;-75
2022/01/13 07:43:47;;;;;;;100.18;22.83;;;5.10;99.90;;;;;;5065779;28;20640;-74
2022/01/13 07:46:13;;;;;;;94.22;22.73;;;5.10;99.90;;;;;;5094716;27;20086;-74
2022/01/13 07:48:38;;;;;;;93.53;22.40;;;5.10;99.90;;;;;;5068627;28;20036;-75
2022/01/13 07:51:04;;;;;;;107.63;23.90;;;5.10;99.90;;;;;;5070830;28;20951;-74
2022/01/13 07:53:30;;;;;;;116.40;24.27;;;5.10;99.90;;;;;;5065571;28;20110;-74
2022/01/13 07:55:55;;;;;;;102.65;24.05;;;5.10;99.90;;;;;;5063931;28;20605;-74
2022/01/13 07:58:21;;;;;;;117.20;24.92;;;5.10;99.90;;;;;;5074497;28;20052;-74
2022/01/13 08:00:47;;;;;;;132.40;25.73;;;5.20;99.90;;;;;;5094268;27;20048;-74
2022/01/13 08:03:12;;;;;;;114.28;24.63;;;5.20;99.90;;;;;;5065127;28;21533;-74
2022/01/13 08:05:38;;;;;;;124.50;25.95;;;5.20;99.90;;;;;;5064452;28;20040;-75
2022/01/13 08:08:04;;;;;;;104.50;24.30;;;5.20;99.90;;;;;;5068378;28;20051;-74
2022/01/13 08:10:30;;;;;;;108.70;23.95;;;5.20;99.90;;;;;;5068603;28;20050;-74
2022/01/13 08:12:55;;;;;;;100.68;23.92;;;5.10;99.90;;;;;;5064043;28;20646;-74
2022/01/13 08:15:21;;;;;;;124.78;25.83;;;5.20;99.90;;;;;;5104996;27;20074;-74
2022/01/13 08:20:34;;;;;;;124.97;25.90;;;5.20;99.90;;;;;;5063938;28;20053;-74
2022/01/13 08:23:00;;;;;;;104.38;24.30;;;5.10;99.90;;;;;;5076433;28;20031;-74
2022/01/13 08:25:27;;;;;;;156.07;27.45;;;5.20;99.90;;;;;;5080025;28;20475;-74
2022/01/13 08:27:53;;;;;;;114.93;25.20;;;5.20;99.90;;;;;;5108126;27;20072;-74
2022/01/13 08:30:19;;;;;;;114.72;25.55;;;5.20;99.90;;;;;;5078508;28;20530;-74
2022/01/13 08:32:45;;;;;;;131.25;26.45;;;5.20;99.90;;;;;;5073071;28;20161;-75
2022/01/13 08:35:12;;;;;;;133.00;26.40;;;5.20;99.90;;;;;;5063272;28;20048;-74
2022/01/13 08:37:38;;;;;;;112.72;24.55;;;5.20;99.90;;;;;;5065432;28;20636;-74
2022/01/13 08:40:06;;;;;;;119.00;25.25;;;5.20;99.90;;;;;;5096377;27;21324;-74
2022/01/13 08:42:33;;;;;;;120.22;26.52;;;5.30;99.90;;;;;;5063928;28;20398;-74
2022/01/13 08:44:59;;;;;;;123.72;27.13;;;5.30;99.90;;;;;;5067481;28;20036;-74
2022/01/13 08:47:25;;;;;;;131.00;26.60;;;5.30;99.90;;;;;;5070011;28;20036;-75
2022/01/13 08:49:51;;;;;;;124.13;27.00;;;5.20;99.90;;;;;;5067007;28;20129;-75
2022/01/13 08:52:17;;;;;;;141.20;27.02;;;5.30;99.90;;;;;;5066945;28;20097;-74
2022/01/13 08:54:45;;;;;;;128.65;27.85;;;5.30;99.90;;;;;;5067138;28;20642;-74
2022/01/13 08:57:12;;;;;;;135.52;28.52;;;5.30;99.90;;;;;;5064249;28;20044;-74
2022/01/13 08:59:38;;;;;;;145.00;28.27;;;5.30;99.90;;;;;;5067284;28;20043;-75
2022/01/13 09:02:03;;;;;;;148.13;28.48;;;5.30;99.90;;;;;;5086787;28;20040;-75
2022/01/13 09:04:29;;;;;;;129.48;28.13;;;5.40;99.90;;;;;;5080738;28;20037;-74
2022/01/13 09:06:55;;;;;;;141.98;26.90;;;5.40;99.90;;;;;;5077434;28;20032;-74
2022/01/13 09:09:21;;;;;;;126.25;26.98;;;5.40;99.90;;;;;;5077535;28;20488;-74
2022/01/13 09:11:47;;;;;;;137.00;27.55;;;5.40;99.90;;;;;;5075131;28;20044;-74
2022/01/13 09:14:14;;;;;;;138.88;29.73;;;5.40;99.90;;;;;;5108493;27;20463;-74
2022/01/13 09:16:45;;;;;;;152.90;28.15;;;5.50;99.90;;;;;;5073774;28;20078;-74
2022/01/13 09:19:14;;;;;;;154.13;29.00;;;5.50;99.90;;;;;;5079340;28;20037;-74
2022/01/13 09:21:42;;;;;;;135.93;27.58;;;5.50;99.90;;;;;;5080583;28;20050;-74
2022/01/13 09:24:14;;;;;;;145.93;29.48;;;5.60;99.90;;;;;;5110197;27;20040;-74
2022/01/13 09:26:41;;;;;;;139.98;29.48;;;5.60;99.90;;;;;;5080639;28;20044;-74
2022/01/13 09:29:08;;;;;;;135.18;28.80;;;5.60;99.90;;;;;;5076155;28;20043;-75
2022/01/13 09:31:38;;;;;;;136.45;28.33;;;5.60;99.90;;;;;;5110307;27;20040;-74
2022/01/13 09:34:06;;;;;;;144.30;30.10;;;5.60;99.90;;;;;;5081432;28;20048;-74
2022/01/13 09:36:32;;;;;;;138.32;28.98;;;5.70;99.90;;;;;;5076593;28;20064;-74
2022/01/13 09:39:00;;;;;;;142.65;29.40;;;5.70;99.90;;;;;;5093613;28;20043;-74
2022/01/13 09:41:30;;;;;;;156.48;31.70;;;5.70;99.90;;;;;;5079804;28;20043;-74
2022/01/13 09:43:57;;;;;;;119.18;27.83;;;5.70;99.90;;;;;;5075616;28;20159;-74
2022/01/13 09:46:26;;;;;;;143.88;30.50;;;5.70;99.90;;;;;;5083317;28;20040;-74
2022/01/13 09:48:54;;;;;;;117.78;28.13;;;5.80;99.90;;;;;;5076048;28;20036;-74
2022/01/13 09:51:26;;;;;;;129.60;29.08;;;5.70;99.90;;;;;;5078045;28;20106;-74
2022/01/13 09:53:52;;;;;;;158.55;31.75;;;5.80;99.90;;;;;;5112950;27;20048;-74
2022/01/13 09:56:18;;;;;;;135.32;28.80;;;5.80;99.90;;;;;;5083864;28;20479;-74
2022/01/13 09:58:44;;;;;;;136.65;30.13;;;5.80;99.90;;;;;;5115195;27;20048;-74
2022/01/13 10:01:11;;;;;;;156.18;29.45;;;5.80;99.90;;;;;;5062362;28;20105;-74
2022/01/13 10:03:37;;;;;;;115.07;27.35;;;5.80;99.90;;;;;;5079764;28;20425;-74
2022/01/13 10:06:13;;;;;;;131.32;29.85;;;5.80;99.90;;;;;;5081949;28;20039;-74
2022/01/13 10:08:40;;;;;;;;;;;5.80;99.90;;;;;;5080058;28;20391;-74
2022/01/13 10:11:25;;;;;;;126.68;28.30;;;5.90;99.90;;;;;;5081882;28;20028;-74
2022/01/13 10:14:06;;;;;;;119.28;27.92;;;5.90;99.90;;;;;;5077529;28;20514;-74
2022/01/13 10:16:32;;;;;;;123.18;27.42;;;5.90;99.90;;;;;;5083409;28;20051;-74
2022/01/13 10:18:58;;;;;;;132.32;28.85;;;5.90;99.90;;;;;;5078061;28;20122;-74
2022/01/13 10:21:23;;;;;;;116.88;26.30;;;6.00;99.90;;;;;;5077549;28;20128;-75
2022/01/13 10:24:12;;;;;;;144.35;29.10;;;5.90;99.90;;;;;;5110761;27;20032;-74
2022/01/13 10:26:40;;;;;;;145.98;31.85;;;6.00;99.90;;;;;;5079096;28;20040;-74
2022/01/13 10:29:07;;;;;;;124.43;29.30;;;6.00;99.90;;;;;;5078408;28;20036;-74
2022/01/13 10:31:51;;;;;;;143.50;30.15;;;6.00;99.90;;;;;;5080964;28;20047;-74
2022/01/13 10:34:22;;;;;;;129.38;27.95;;;6.00;99.90;;;;;;5080777;28;20035;-74
2022/01/13 10:37:26;;;;;;;141.02;30.75;;;6.00;99.90;;;;;;5080571;28;20101;-74
2022/01/13 10:40:01;;;;;;;143.63;28.90;;;6.00;99.90;;;;;;5071042;28;20170;-74
2022/01/13 10:45:20;;;;;;;155.77;29.98;;;6.00;99.90;;;;;;5077923;28;20414;-74
2022/01/13 10:47:51;;;;;;;141.32;30.35;;;6.00;99.90;;;;;;5080225;28;20402;-74
2022/01/13 10:50:18;;;;;;;149.77;29.75;;;6.10;99.90;;;;;;5111460;27;20040;-75
2022/01/13 10:52:44;;;;;;;148.05;30.35;;;6.00;99.90;;;;;;5078424;28;20043;-75
2022/01/13 10:55:19;;;;;;;130.40;28.42;;;6.00;99.90;;;;;;5078767;28;20040;-75
2022/01/13 10:57:46;;;;;;;128.73;28.48;;;6.10;99.90;;;;;;5079235;28;20035;-74
2022/01/13 11:00:19;;;;;;;160.38;31.42;;;6.10;99.90;;;;;;5077808;28;20039;-75
2022/01/13 11:02:57;;;;;;;154.57;30.15;;;6.10;99.90;;;;;;5109476;27;20059;-75
2022/01/13 11:05:27;;;;;;;121.25;28.17;;;6.10;99.90;;;;;;5082118;28;20079;-73
2022/01/13 11:07:54;;;;;;;119.53;28.65;;;6.10;99.90;;;;;;5112964;27;20048;-74
2022/01/13 11:10:21;;;;;;;106.68;27.02;;;6.20;99.90;;;;;;5079055;28;20089;-74
2022/01/13 11:12:55;;;;;;;99.65;25.83;;;6.10;99.90;;;;;;5076882;28;20036;-75
2022/01/13 11:15:21;;;;;;;114.47;26.90;;;6.20;99.90;;;;;;5077002;28;20513;-74
2022/01/13 11:17:48;;;;;;;106.78;28.17;;;6.20;99.90;;;;;;5079358;28;20355;-74
2022/01/13 11:20:18;;;;;;;108.40;26.33;;;6.20;99.90;;;;;;5108051;27;20044;-74
2022/01/13 11:22:47;;;;;;;97.00;26.58;;;6.20;99.90;;;;;;5063498;28;20047;-74
2022/01/13 11:25:18;;;;;;;108.43;27.95;;;6.30;99.90;;;;;;5076440;28;20039;-74
2022/01/13 11:27:45;;;;;;;110.78;26.17;;;6.20;99.90;;;;;;5081632;28;20047;-74
2022/01/13 11:30:15;;;;;;;101.00;26.83;;;6.20;99.90;;;;;;5079246;28;20086;-74
2022/01/13 11:32:42;;;;;;;92.65;25.40;;;6.20;99.90;;;;;;5077660;28;20036;-74
2022/01/13 11:35:13;;;;;;;97.03;26.90;;;6.20;99.90;;;;;;5079418;28;20040;-74
2022/01/13 11:37:40;;;;;;;93.38;26.88;;;6.30;99.90;;;;;;5078141;28;20036;-74
2022/01/13 11:40:07;;;;;;;93.43;26.45;;;6.20;99.90;;;;;;5082045;28;20040;-74
2022/01/13 11:42:46;;;;;;;96.90;28.42;;;6.30;99.90;;;;;;5076360;28;20259;-74
2022/01/13 11:45:15;;;;;;;96.45;27.08;;;6.30;99.90;;;;;;5082408;28;20394;-74
2022/01/13 11:47:41;;;;;;;96.03;27.60;;;6.30;99.90;;;;;;5075818;28;20033;-74
2022/01/13 11:50:18;;;;;;;106.07;29.80;;;6.30;99.90;;;;;;5077691;28;20043;-74
2022/01/13 11:52:51;;;;;;;97.35;29.65;;;6.30;99.90;;;;;;5079010;28;20040;-74
2022/01/13 11:55:32;;;;;;;106.03;29.65;;;6.40;99.90;;;;;;5113266;27;20424;-74
2022/01/13 11:58:16;;;;;;;99.43;28.83;;;6.40;99.90;;;;;;5076135;28;20110;-74
2022/01/13 12:00:45;;;;;;;104.30;30.02;;;6.30;99.90;;;;;;5076109;28;20046;-74
2022/01/13 12:03:32;;;;;;;122.97;31.58;;;6.40;99.90;;;;;;5082565;28;20047;-74
2022/01/13 12:06:01;;;;;;;114.15;32.38;;;6.40;99.90;;;;;;5094149;27;20041;-74
2022/01/13 12:08:56;;;;;;;112.00;30.45;;;6.40;99.90;;;;;;5076408;28;20040;-74
2022/01/13 12:11:35;;;;;;;126.43;32.67;;;6.40;99.90;;;;;;5076940;28;20033;-74
2022/01/13 12:14:01;;;;;;;111.60;31.70;;;6.40;99.90;;;;;;5074142;28;20068;-75
2022/01/13 12:16:51;;;;;;;132.38;35.15;;;6.40;99.90;;;;;;5078558;28;20442;-74
2022/01/13 12:19:37;;;;;;;110.88;32.05;;;6.40;99.90;;;;;;5083005;28;20036;-74
2022/01/13 12:22:12;;;;;;;;;;;6.50;99.90;;;;;;5109694;27;20054;-74
2022/01/13 12:24:48;;;;;;;134.80;34.20;;;6.40;99.90;;;;;;5109345;27;19969;-74
2022/01/13 12:27:21;;;;;;;126.72;35.75;;;6.40;99.90;;;;;;5077137;28;20039;-74
2022/01/13 12:30:02;;;;;;;128.50;36.75;;;6.50;99.90;;;;;;5110698;27;20040;-74
2022/01/13 12:32:35;;;;;;;126.35;34.42;;;6.50;99.90;;;;;;5075817;28;20043;-74
2022/01/13 12:35:02;;;;;;;115.32;34.72;;;6.50;99.90;;;;;;5082619;28;20104;-74
2022/01/13 12:37:29;;;;;;;127.45;37.03;;;6.60;99.90;;;;;;5077553;28;20105;-74
2022/01/13 12:39:59;;;;;;;129.05;36.33;;;6.50;99.90;;;;;;5080824;28;20048;-74
2022/01/13 12:42:41;;;;;;;115.85;35.35;;;6.60;99.90;;;;;;5080497;28;20123;-75
2022/01/13 12:47:56;;;;;;;134.57;39.95;;;6.60;99.90;;;;;;5075963;28;20127;-74
2022/01/13 12:50:28;;;;;;;119.15;38.70;;;6.60;99.90;;;;;;5078670;28;20036;-74
2022/01/13 12:53:19;;;;;;;130.77;39.60;;;6.60;99.90;;;;;;5075487;28;20036;-74
2022/01/13 12:55:56;;;;;;;110.95;38.60;;;6.70;99.90;;;;;;5076974;28;20560;-74
2022/01/13 12:58:25;;;;;;;114.35;39.50;;;6.60;99.90;;;;;;5074736;28;20035;-74
2022/01/13 13:00:54;;;;;;;110.55;40.20;;;6.70;99.90;;;;;;5076419;28;20044;-74
2022/01/13 13:03:20;;;;;;;89.57;37.55;;;6.70;99.90;;;;;;5074505;28;20040;-74
2022/01/13 13:05:48;;;;;;;94.13;38.22;;;6.80;99.90;;;;;;5078161;28;20036;-75
2022/01/13 13:08:19;;;;;;;88.82;37.72;;;6.80;99.90;;;;;;5073023;28;20044;-74